sensor_id;sensor_type;location;lat;lon;timestamp;P1;durP1;ratioP1;P2;durP2;ratioP2
3873;SDS011;1952;50.872;6.692;2023-08-06T00:02:28;4.80;;;4.23;;
3873;SDS011;1952;50.872;6.692;2023-08-06T00:04:56;4.70;;;4.30;;
3873;SDS011;1952;50.872;6.692;2023-08-06T00:07:25;4.67;;;3.97;;
3873;SDS011;1952;50.872;6.692;2023-08-06T00:09:53;4.77;;;4.20;;
3873;SDS011;1952;50.872;6.692;2023-08-06T00:12:21;5.60;;;5.00;;
3873;SDS011;1952;50.872;6.692;2023-08-06T00:14:51;3.83;;;3.43;;
3873;SDS011;1952;50.872;6.692;2023-08-06T00:17:20;6.20;;;4.80;;
3873;SDS011;1952;50.872;6.692;2023-08-06T00:19:48;3.73;;;3.07;;
3873;SDS011;1952;50.872;6.692;2023-08-06T00:22:16;4.90;;;3.73;;
3873;SDS011;1952;50.872;6.692;2023-08-06T00:24:46;3.40;;;3.20;;
3873;SDS011;1952;50.872;6.692;2023-08-06T00:27:14;6.43;;;3.30;;
3873;SDS011;1952;50.872;6.692;2023-08-06T00:29:42;3.37;;;2.93;;
3873;SDS011;1952;50.872;6.692;2023-08-06T00:32:12;4.20;;;3.40;;
3873;SDS011;1952;50.872;6.692;2023-08-06T00:34:40;3.97;;;3.57;;
3873;SDS011;1952;50.872;6.692;2023-08-06T00:37:09;3.93;;;3.60;;
3873;SDS011;1952;50.872;6.692;2023-08-06T00:39:37;3.23;;;2.67;;
3873;SDS011;1952;50.872;6.692;2023-08-06T00:42:05;3.80;;;3.00;;
3873;SDS011;1952;50.872;6.692;2023-08-06T00:44:33;2.80;;;2.60;;
3873;SDS011;1952;50.872;6.692;2023-08-06T00:47:02;2.30;;;2.10;;
3873;SDS011;1952;50.872;6.692;2023-08-06T00:49:32;3.17;;;2.80;;
3873;SDS011;1952;50.872;6.692;2023-08-06T00:52:00;3.13;;;2.83;;
3873;SDS011;1952;50.872;6.692;2023-08-06T00:54:29;3.10;;;2.90;;
3873;SDS011;1952;50.872;6.692;2023-08-06T00:56:58;4.20;;;2.47;;
3873;SDS011;1952;50.872;6.692;2023-08-06T00:59:29;3.17;;;2.87;;
3873;SDS011;1952;50.872;6.692;2023-08-06T01:01:57;3.03;;;2.73;;
3873;SDS011;1952;50.872;6.692;2023-08-06T01:04:26;2.50;;;2.30;;
3873;SDS011;1952;50.872;6.692;2023-08-06T01:06:59;2.60;;;2.40;;
3873;SDS011;1952;50.872;6.692;2023-08-06T01:43:48;2.53;;;2.33;;
3873;SDS011;1952;50.872;6.692;2023-08-06T01:46:16;3.17;;;2.73;;
3873;SDS011;1952;50.872;6.692;2023-08-06T01:48:44;3.37;;;3.07;;
3873;SDS011;1952;50.872;6.692;2023-08-06T01:51:13;2.33;;;2.13;;
3873;SDS011;1952;50.872;6.692;2023-08-06T01:53:41;4.13;;;2.60;;
3873;SDS011;1952;50.872;6.692;2023-08-06T01:56:10;3.13;;;2.83;;
3873;SDS011;1952;50.872;6.692;2023-08-06T01:58:38;2.47;;;2.27;;
3873;SDS011;1952;50.872;6.692;2023-08-06T02:01:08;3.07;;;2.60;;
3873;SDS011;1952;50.872;6.692;2023-08-06T02:03:36;2.78;;;2.53;;
3873;SDS011;1952;50.872;6.692;2023-08-06T02:06:05;2.63;;;2.43;;
3873;SDS011;1952;50.872;6.692;2023-08-06T02:08:33;2.80;;;2.60;;
3873;SDS011;1952;50.872;6.692;2023-08-06T02:11:01;2.27;;;2.07;;
3873;SDS011;1952;50.872;6.692;2023-08-06T02:13:29;2.60;;;2.40;;
3873;SDS011;1952;50.872;6.692;2023-08-06T02:15:58;4.20;;;2.30;;
3873;SDS011;1952;50.872;6.692;2023-08-06T02:18:27;2.72;;;2.53;;
3873;SDS011;1952;50.872;6.692;2023-08-06T02:20:56;2.33;;;2.23;;
3873;SDS011;1952;50.872;6.692;2023-08-06T02:23:24;2.90;;;2.70;;
3873;SDS011;1952;50.872;6.692;2023-08-06T02:25:57;3.00;;;2.57;;
3873;SDS011;1952;50.872;6.692;2023-08-06T02:28:26;3.33;;;2.60;;
3873;SDS011;1952;50.872;6.692;2023-08-06T02:30:54;2.63;;;2.43;;
3873;SDS011;1952;50.872;6.692;2023-08-06T02:33:23;2.97;;;2.25;;
3873;SDS011;1952;50.872;6.692;2023-08-06T02:35:59;4.47;;;2.70;;
3873;SDS011;1952;50.872;6.692;2023-08-06T02:38:29;3.25;;;2.25;;
3873;SDS011;1952;50.872;6.692;2023-08-06T02:40:58;3.93;;;2.37;;
3873;SDS011;1952;50.872;6.692;2023-08-06T02:43:26;2.90;;;2.70;;
3873;SDS011;1952;50.872;6.692;2023-08-06T02:45:56;2.57;;;2.37;;
3873;SDS011;1952;50.872;6.692;2023-08-06T02:48:25;3.40;;;2.43;;
3873;SDS011;1952;50.872;6.692;2023-08-06T02:50:56;3.40;;;2.03;;
3873;SDS011;1952;50.872;6.692;2023-08-06T02:53:27;3.43;;;2.30;;
3873;SDS011;1952;50.872;6.692;2023-08-06T02:55:56;2.13;;;2.03;;
3873;SDS011;1952;50.872;6.692;2023-08-06T02:58:25;2.50;;;2.30;;
3873;SDS011;1952;50.872;6.692;2023-08-06T03:01:00;3.30;;;2.38;;
3873;SDS011;1952;50.872;6.692;2023-08-06T03:03:29;3.60;;;1.90;;
3873;SDS011;1952;50.872;6.692;2023-08-06T03:05:57;2.00;;;1.90;;
3873;SDS011;1952;50.872;6.692;2023-08-06T03:08:27;2.00;;;1.80;;
3873;SDS011;1952;50.872;6.692;2023-08-06T03:10:56;2.40;;;1.97;;
3873;SDS011;1952;50.872;6.692;2023-08-06T03:13:24;2.47;;;2.27;;
3873;SDS011;1952;50.872;6.692;2023-08-06T03:15:54;2.47;;;2.27;;
3873;SDS011;1952;50.872;6.692;2023-08-06T03:18:23;2.70;;;2.50;;
3873;SDS011;1952;50.872;6.692;2023-08-06T03:20:52;6.70;;;2.40;;
3873;SDS011;1952;50.872;6.692;2023-08-06T03:23:20;2.30;;;2.10;;
3873;SDS011;1952;50.872;6.692;2023-08-06T03:25:50;2.80;;;2.40;;
3873;SDS011;1952;50.872;6.692;2023-08-06T03:28:18;2.53;;;2.33;;
3873;SDS011;1952;50.872;6.692;2023-08-06T03:30:46;3.30;;;2.67;;
3873;SDS011;1952;50.872;6.692;2023-08-06T03:33:15;2.73;;;2.43;;
3873;SDS011;1952;50.872;6.692;2023-08-06T03:35:43;3.47;;;2.53;;
3873;SDS011;1952;50.872;6.692;2023-08-06T03:38:11;8.63;;;2.73;;
3873;SDS011;1952;50.872;6.692;2023-08-06T03:40:39;3.43;;;3.00;;
3873;SDS011;1952;50.872;6.692;2023-08-06T03:43:09;2.27;;;2.10;;
3873;SDS011;1952;50.872;6.692;2023-08-06T03:45:38;5.20;;;2.70;;
3873;SDS011;1952;50.872;6.692;2023-08-06T03:48:06;2.20;;;2.00;;
3873;SDS011;1952;50.872;6.692;2023-08-06T03:50:34;2.80;;;2.60;;
3873;SDS011;1952;50.872;6.692;2023-08-06T03:53:02;3.70;;;3.10;;
3873;SDS011;1952;50.872;6.692;2023-08-06T03:55:30;3.17;;;2.27;;
3873;SDS011;1952;50.872;6.692;2023-08-06T03:57:59;3.13;;;2.90;;
3873;SDS011;1952;50.872;6.692;2023-08-06T04:00:28;4.23;;;2.40;;
3873;SDS011;1952;50.872;6.692;2023-08-06T04:02:56;3.43;;;2.67;;
3873;SDS011;1952;50.872;6.692;2023-08-06T04:05:24;3.53;;;2.70;;
3873;SDS011;1952;50.872;6.692;2023-08-06T04:07:53;4.05;;;2.97;;
3873;SDS011;1952;50.872;6.692;2023-08-06T04:10:21;2.90;;;2.70;;
3873;SDS011;1952;50.872;6.692;2023-08-06T04:12:49;4.83;;;2.63;;
3873;SDS011;1952;50.872;6.692;2023-08-06T04:15:18;3.13;;;2.83;;
3873;SDS011;1952;50.872;6.692;2023-08-06T04:17:48;3.33;;;3.03;;
3873;SDS011;1952;50.872;6.692;2023-08-06T04:20:16;3.47;;;2.90;;
3873;SDS011;1952;50.872;6.692;2023-08-06T04:22:45;3.40;;;2.60;;
3873;SDS011;1952;50.872;6.692;2023-08-06T04:25:16;6.13;;;3.10;;
3873;SDS011;1952;50.872;6.692;2023-08-06T04:28:10;2.67;;;2.47;;
3873;SDS011;1952;50.872;6.692;2023-08-06T04:30:38;2.93;;;2.70;;
3873;SDS011;1952;50.872;6.692;2023-08-06T04:33:08;2.97;;;2.77;;
3873;SDS011;1952;50.872;6.692;2023-08-06T04:35:38;2.93;;;2.67;;
3873;SDS011;1952;50.872;6.692;2023-08-06T04:38:06;3.10;;;2.80;;
3873;SDS011;1952;50.872;6.692;2023-08-06T04:40:35;4.43;;;2.72;;
3873;SDS011;1952;50.872;6.692;2023-08-06T04:43:03;3.53;;;3.20;;
3873;SDS011;1952;50.872;6.692;2023-08-06T04:45:46;3.57;;;3.27;;
3873;SDS011;1952;50.872;6.692;2023-08-06T04:48:17;2.70;;;2.50;;
3873;SDS011;1952;50.872;6.692;2023-08-06T04:50:48;3.27;;;3.00;;
3873;SDS011;1952;50.872;6.692;2023-08-06T04:53:17;6.43;;;3.07;;
3873;SDS011;1952;50.872;6.692;2023-08-06T04:55:46;2.90;;;2.70;;
3873;SDS011;1952;50.872;6.692;2023-08-06T04:58:15;3.43;;;3.00;;
3873;SDS011;1952;50.872;6.692;2023-08-06T05:00:43;3.40;;;3.10;;
3873;SDS011;1952;50.872;6.692;2023-08-06T05:03:11;3.10;;;2.80;;
3873;SDS011;1952;50.872;6.692;2023-08-06T05:05:41;3.28;;;3.08;;
3873;SDS011;1952;50.872;6.692;2023-08-06T05:08:13;3.87;;;3.50;;
3873;SDS011;1952;50.872;6.692;2023-08-06T05:10:43;4.57;;;4.17;;
3873;SDS011;1952;50.872;6.692;2023-08-06T05:13:12;3.40;;;3.10;;
3873;SDS011;1952;50.872;6.692;2023-08-06T05:15:42;4.00;;;3.60;;
3873;SDS011;1952;50.872;6.692;2023-08-06T05:18:12;4.97;;;3.17;;
3873;SDS011;1952;50.872;6.692;2023-08-06T05:20:42;4.93;;;4.40;;
3873;SDS011;1952;50.872;6.692;2023-08-06T05:23:11;4.40;;;3.57;;
3873;SDS011;1952;50.872;6.692;2023-08-06T05:25:39;4.83;;;4.00;;
3873;SDS011;1952;50.872;6.692;2023-08-06T05:28:07;4.13;;;3.07;;
3873;SDS011;1952;50.872;6.692;2023-08-06T05:30:38;3.47;;;3.23;;
3873;SDS011;1952;50.872;6.692;2023-08-06T05:33:07;4.13;;;3.83;;
3873;SDS011;1952;50.872;6.692;2023-08-06T05:36:05;4.50;;;3.30;;
3873;SDS011;1952;50.872;6.692;2023-08-06T05:38:33;3.83;;;3.42;;
3873;SDS011;1952;50.872;6.692;2023-08-06T05:41:05;5.03;;;3.50;;
3873;SDS011;1952;50.872;6.692;2023-08-06T05:44:01;3.70;;;3.40;;
3873;SDS011;1952;50.872;6.692;2023-08-06T05:46:43;3.27;;;3.07;;
3873;SDS011;1952;50.872;6.692;2023-08-06T05:49:20;3.83;;;3.33;;
3873;SDS011;1952;50.872;6.692;2023-08-06T05:52:00;4.03;;;3.60;;
3873;SDS011;1952;50.872;6.692;2023-08-06T05:54:29;4.57;;;3.57;;
3873;SDS011;1952;50.872;6.692;2023-08-06T05:56:58;3.70;;;3.13;;
3873;SDS011;1952;50.872;6.692;2023-08-06T05:59:40;3.00;;;2.80;;
3873;SDS011;1952;50.872;6.692;2023-08-06T06:02:10;3.83;;;3.13;;
3873;SDS011;1952;50.872;6.692;2023-08-06T06:04:38;3.63;;;3.00;;
3873;SDS011;1952;50.872;6.692;2023-08-06T06:09:59;3.70;;;3.40;;
3873;SDS011;1952;50.872;6.692;2023-08-06T06:12:28;4.90;;;2.90;;
3873;SDS011;1952;50.872;6.692;2023-08-06T06:14:57;3.50;;;3.20;;
3873;SDS011;1952;50.872;6.692;2023-08-06T06:17:27;3.80;;;3.50;;
3873;SDS011;1952;50.872;6.692;2023-08-06T06:19:55;3.90;;;3.63;;
3873;SDS011;1952;50.872;6.692;2023-08-06T06:22:24;2.93;;;2.73;;
3873;SDS011;1952;50.872;6.692;2023-08-06T06:24:52;3.17;;;2.97;;
3873;SDS011;1952;50.872;6.692;2023-08-06T06:27:21;2.77;;;2.53;;
3873;SDS011;1952;50.872;6.692;2023-08-06T06:29:49;3.60;;;2.50;;
3873;SDS011;1952;50.872;6.692;2023-08-06T06:32:18;2.60;;;2.33;;
3873;SDS011;1952;50.872;6.692;2023-08-06T06:34:47;2.60;;;2.40;;
3873;SDS011;1952;50.872;6.692;2023-08-06T06:37:15;3.13;;;2.90;;
3873;SDS011;1952;50.872;6.692;2023-08-06T06:39:45;2.40;;;2.20;;
3873;SDS011;1952;50.872;6.692;2023-08-06T06:42:13;2.50;;;2.30;;
3873;SDS011;1952;50.872;6.692;2023-08-06T06:44:41;2.50;;;2.30;;
3873;SDS011;1952;50.872;6.692;2023-08-06T06:47:09;3.07;;;2.77;;
3873;SDS011;1952;50.872;6.692;2023-08-06T06:49:38;2.60;;;2.40;;
3873;SDS011;1952;50.872;6.692;2023-08-06T06:52:06;2.80;;;2.40;;
3873;SDS011;1952;50.872;6.692;2023-08-06T06:54:34;2.47;;;2.27;;
3873;SDS011;1952;50.872;6.692;2023-08-06T06:57:04;2.70;;;2.50;;
3873;SDS011;1952;50.872;6.692;2023-08-06T06:59:32;2.63;;;1.97;;
3873;SDS011;1952;50.872;6.692;2023-08-06T07:02:00;2.33;;;2.13;;
3873;SDS011;1952;50.872;6.692;2023-08-06T07:04:29;2.20;;;2.10;;
3873;SDS011;1952;50.872;6.692;2023-08-06T07:06:57;2.70;;;2.50;;
3873;SDS011;1952;50.872;6.692;2023-08-06T07:09:26;2.60;;;2.40;;
3873;SDS011;1952;50.872;6.692;2023-08-06T07:12:23;3.53;;;3.10;;
3873;SDS011;1952;50.872;6.692;2023-08-06T07:14:53;2.90;;;2.70;;
3873;SDS011;1952;50.872;6.692;2023-08-06T07:17:38;3.30;;;2.93;;
3873;SDS011;1952;50.872;6.692;2023-08-06T07:20:07;2.70;;;2.50;;
3873;SDS011;1952;50.872;6.692;2023-08-06T07:23:07;4.13;;;2.70;;
3873;SDS011;1952;50.872;6.692;2023-08-06T07:25:36;3.00;;;2.55;;
3873;SDS011;1952;50.872;6.692;2023-08-06T07:28:12;3.10;;;2.57;;
3873;SDS011;1952;50.872;6.692;2023-08-06T07:30:45;2.90;;;2.70;;
3873;SDS011;1952;50.872;6.692;2023-08-06T07:33:29;3.70;;;3.40;;
3873;SDS011;1952;50.872;6.692;2023-08-06T07:36:07;3.50;;;3.30;;
3873;SDS011;1952;50.872;6.692;2023-08-06T07:38:36;3.10;;;2.90;;
3873;SDS011;1952;50.872;6.692;2023-08-06T07:41:05;4.37;;;4.07;;
3873;SDS011;1952;50.872;6.692;2023-08-06T07:43:48;3.80;;;3.50;;
3873;SDS011;1952;50.872;6.692;2023-08-06T07:46:19;3.60;;;3.30;;
3873;SDS011;1952;50.872;6.692;2023-08-06T07:48:47;3.90;;;3.50;;
3873;SDS011;1952;50.872;6.692;2023-08-06T07:51:15;6.00;;;4.17;;
3873;SDS011;1952;50.872;6.692;2023-08-06T07:53:43;5.43;;;3.97;;
3873;SDS011;1952;50.872;6.692;2023-08-06T07:56:13;3.40;;;3.10;;
3873;SDS011;1952;50.872;6.692;2023-08-06T07:58:57;2.57;;;2.33;;
3873;SDS011;1952;50.872;6.692;2023-08-06T08:01:26;3.53;;;3.23;;
3873;SDS011;1952;50.872;6.692;2023-08-06T08:03:55;2.97;;;2.78;;
3873;SDS011;1952;50.872;6.692;2023-08-06T08:06:23;2.67;;;2.57;;
3873;SDS011;1952;50.872;6.692;2023-08-06T08:08:52;2.70;;;2.50;;
3873;SDS011;1952;50.872;6.692;2023-08-06T08:11:21;2.57;;;1.80;;
3873;SDS011;1952;50.872;6.692;2023-08-06T08:14:09;2.13;;;1.87;;
3873;SDS011;1952;50.872;6.692;2023-08-06T08:16:47;2.30;;;1.80;;
3873;SDS011;1952;50.872;6.692;2023-08-06T08:19:17;1.77;;;1.67;;
3873;SDS011;1952;50.872;6.692;2023-08-06T08:21:46;1.60;;;1.47;;
3873;SDS011;1952;50.872;6.692;2023-08-06T08:24:18;2.00;;;1.77;;
3873;SDS011;1952;50.872;6.692;2023-08-06T08:26:47;2.23;;;1.50;;
3873;SDS011;1952;50.872;6.692;2023-08-06T08:29:19;1.93;;;1.83;;
3873;SDS011;1952;50.872;6.692;2023-08-06T08:31:48;1.90;;;1.80;;
3873;SDS011;1952;50.872;6.692;2023-08-06T08:34:18;1.90;;;1.77;;
3873;SDS011;1952;50.872;6.692;2023-08-06T08:36:46;2.23;;;2.03;;
3873;SDS011;1952;50.872;6.692;2023-08-06T08:39:16;1.50;;;1.40;;
3873;SDS011;1952;50.872;6.692;2023-08-06T08:41:48;1.47;;;1.37;;
3873;SDS011;1952;50.872;6.692;2023-08-06T08:44:22;1.40;;;1.30;;
3873;SDS011;1952;50.872;6.692;2023-08-06T08:46:55;1.50;;;1.40;;
3873;SDS011;1952;50.872;6.692;2023-08-06T08:49:28;1.40;;;1.30;;
3873;SDS011;1952;50.872;6.692;2023-08-06T08:52:11;1.45;;;1.30;;
3873;SDS011;1952;50.872;6.692;2023-08-06T08:54:44;1.40;;;1.30;;
3873;SDS011;1952;50.872;6.692;2023-08-06T08:57:21;1.40;;;1.30;;
3873;SDS011;1952;50.872;6.692;2023-08-06T09:00:19;1.13;;;1.03;;
3873;SDS011;1952;50.872;6.692;2023-08-06T09:03:05;1.17;;;1.07;;
3873;SDS011;1952;50.872;6.692;2023-08-06T09:06:06;1.57;;;1.10;;
3873;SDS011;1952;50.872;6.692;2023-08-06T09:09:00;1.70;;;1.60;;
3873;SDS011;1952;50.872;6.692;2023-08-06T09:11:59;1.20;;;1.10;;
3873;SDS011;1952;50.872;6.692;2023-08-06T09:14:29;1.40;;;1.30;;
3873;SDS011;1952;50.872;6.692;2023-08-06T09:16:58;1.57;;;1.47;;
3873;SDS011;1952;50.872;6.692;2023-08-06T09:19:27;1.50;;;1.40;;
3873;SDS011;1952;50.872;6.692;2023-08-06T09:22:14;1.40;;;1.30;;
3873;SDS011;1952;50.872;6.692;2023-08-06T09:24:44;1.30;;;1.20;;
3873;SDS011;1952;50.872;6.692;2023-08-06T09:27:14;1.43;;;1.33;;
3873;SDS011;1952;50.872;6.692;2023-08-06T09:29:43;5.63;;;1.23;;
3873;SDS011;1952;50.872;6.692;2023-08-06T09:38:13;1.53;;;1.23;;
3873;SDS011;1952;50.872;6.692;2023-08-06T09:40:45;4.70;;;1.37;;
3873;SDS011;1952;50.872;6.692;2023-08-06T09:43:26;1.30;;;1.20;;
3873;SDS011;1952;50.872;6.692;2023-08-06T09:45:55;1.50;;;1.40;;
3873;SDS011;1952;50.872;6.692;2023-08-06T09:48:27;1.50;;;1.40;;
3873;SDS011;1952;50.872;6.692;2023-08-06T09:51:04;3.73;;;1.30;;
3873;SDS011;1952;50.872;6.692;2023-08-06T09:53:36;1.30;;;1.20;;
3873;SDS011;1952;50.872;6.692;2023-08-06T09:56:22;1.50;;;1.40;;
3873;SDS011;1952;50.872;6.692;2023-08-06T09:59:04;1.53;;;1.43;;
3873;SDS011;1952;50.872;6.692;2023-08-06T10:01:37;2.07;;;1.60;;
3873;SDS011;1952;50.872;6.692;2023-08-06T10:04:06;2.47;;;1.60;;
3873;SDS011;1952;50.872;6.692;2023-08-06T10:06:51;1.67;;;1.53;;
3873;SDS011;1952;50.872;6.692;2023-08-06T10:09:20;2.30;;;1.87;;
3873;SDS011;1952;50.872;6.692;2023-08-06T10:12:04;2.67;;;2.47;;
3873;SDS011;1952;50.872;6.692;2023-08-06T10:14:35;3.20;;;2.53;;
3873;SDS011;1952;50.872;6.692;2023-08-06T10:17:06;3.43;;;2.80;;
3873;SDS011;1952;50.872;6.692;2023-08-06T10:20:03;4.10;;;2.67;;
3873;SDS011;1952;50.872;6.692;2023-08-06T10:28:54;2.90;;;2.70;;
3873;SDS011;1952;50.872;6.692;2023-08-06T10:31:54;4.40;;;3.17;;
3873;SDS011;1952;50.872;6.692;2023-08-06T10:34:56;3.03;;;2.83;;
3873;SDS011;1952;50.872;6.692;2023-08-06T10:37:44;5.07;;;2.67;;
3873;SDS011;1952;50.872;6.692;2023-08-06T10:40:20;2.30;;;2.20;;
3873;SDS011;1952;50.872;6.692;2023-08-06T10:43:25;3.00;;;2.70;;
3873;SDS011;1952;50.872;6.692;2023-08-06T10:46:26;2.70;;;2.50;;
3873;SDS011;1952;50.872;6.692;2023-08-06T10:49:01;2.83;;;2.63;;
3873;SDS011;1952;50.872;6.692;2023-08-06T10:51:57;2.93;;;2.40;;
3873;SDS011;1952;50.872;6.692;2023-08-06T10:54:53;2.60;;;1.80;;
3873;SDS011;1952;50.872;6.692;2023-08-06T10:57:37;2.17;;;1.97;;
3873;SDS011;1952;50.872;6.692;2023-08-06T11:00:33;6.00;;;2.80;;
3873;SDS011;1952;50.872;6.692;2023-08-06T11:06:36;2.43;;;2.20;;
3873;SDS011;1952;50.872;6.692;2023-08-06T11:14:40;2.53;;;2.30;;
3873;SDS011;1952;50.872;6.692;2023-08-06T11:17:27;3.67;;;2.17;;
3873;SDS011;1952;50.872;6.692;2023-08-06T11:20:19;2.53;;;1.87;;
3873;SDS011;1952;50.872;6.692;2023-08-06T11:23:07;3.90;;;1.70;;
3873;SDS011;1952;50.872;6.692;2023-08-06T11:25:55;1.67;;;1.57;;
3873;SDS011;1952;50.872;6.692;2023-08-06T11:28:51;2.27;;;1.97;;
3873;SDS011;1952;50.872;6.692;2023-08-06T11:31:30;3.60;;;1.90;;
3873;SDS011;1952;50.872;6.692;2023-08-06T11:34:09;2.30;;;2.10;;
3873;SDS011;1952;50.872;6.692;2023-08-06T11:37:05;2.83;;;2.60;;
3873;SDS011;1952;50.872;6.692;2023-08-06T11:52:33;3.03;;;2.25;;
3873;SDS011;1952;50.872;6.692;2023-08-06T11:55:02;1.90;;;1.70;;
3873;SDS011;1952;50.872;6.692;2023-08-06T11:57:33;3.83;;;2.23;;
3873;SDS011;1952;50.872;6.692;2023-08-06T12:00:03;2.40;;;1.92;;
3873;SDS011;1952;50.872;6.692;2023-08-06T12:02:34;4.80;;;2.00;;
3873;SDS011;1952;50.872;6.692;2023-08-06T12:05:11;2.50;;;2.30;;
3873;SDS011;1952;50.872;6.692;2023-08-06T12:07:44;2.43;;;2.23;;
3873;SDS011;1952;50.872;6.692;2023-08-06T12:10:34;2.87;;;2.63;;
3873;SDS011;1952;50.872;6.692;2023-08-06T12:13:04;2.60;;;2.40;;
3873;SDS011;1952;50.872;6.692;2023-08-06T12:16:00;2.93;;;2.03;;
3873;SDS011;1952;50.872;6.692;2023-08-06T12:18:56;4.23;;;2.00;;
3873;SDS011;1952;50.872;6.692;2023-08-06T12:21:52;2.70;;;1.77;;
3873;SDS011;1952;50.872;6.692;2023-08-06T12:24:51;2.42;;;2.22;;
3873;SDS011;1952;50.872;6.692;2023-08-06T12:27:24;2.90;;;1.83;;
3873;SDS011;1952;50.872;6.692;2023-08-06T12:30:25;5.43;;;2.83;;
3873;SDS011;1952;50.872;6.692;2023-08-06T12:33:02;1.63;;;1.53;;
3873;SDS011;1952;50.872;6.692;2023-08-06T12:35:46;2.93;;;1.90;;
3873;SDS011;1952;50.872;6.692;2023-08-06T12:38:44;2.33;;;1.80;;
3873;SDS011;1952;50.872;6.692;2023-08-06T12:41:26;3.37;;;1.73;;
3873;SDS011;1952;50.872;6.692;2023-08-06T12:44:22;1.70;;;1.60;;
3873;SDS011;1952;50.872;6.692;2023-08-06T12:47:06;1.87;;;1.77;;
3873;SDS011;1952;50.872;6.692;2023-08-06T12:49:51;2.23;;;2.03;;
3873;SDS011;1952;50.872;6.692;2023-08-06T12:52:35;3.10;;;1.70;;
3873;SDS011;1952;50.872;6.692;2023-08-06T12:55:17;2.13;;;1.83;;
3873;SDS011;1952;50.872;6.692;2023-08-06T12:58:12;2.17;;;1.80;;
3873;SDS011;1952;50.872;6.692;2023-08-06T13:00:44;2.03;;;1.80;;
3873;SDS011;1952;50.872;6.692;2023-08-06T13:03:43;2.30;;;1.90;;
3873;SDS011;1952;50.872;6.692;2023-08-06T13:06:45;2.17;;;1.98;;
3873;SDS011;1952;50.872;6.692;2023-08-06T13:57:12;2.23;;;2.03;;
3873;SDS011;1952;50.872;6.692;2023-08-06T14:05:18;6.70;;;1.90;;
3873;SDS011;1952;50.872;6.692;2023-08-06T14:07:58;3.00;;;1.90;;
3873;SDS011;1952;50.872;6.692;2023-08-06T14:10:45;2.07;;;1.87;;
3873;SDS011;1952;50.872;6.692;2023-08-06T14:13:58;3.33;;;2.40;;
3873;SDS011;1952;50.872;6.692;2023-08-06T14:16:50;1.83;;;1.50;;
3873;SDS011;1952;50.872;6.692;2023-08-06T14:19:33;5.00;;;1.57;;
3873;SDS011;1952;50.872;6.692;2023-08-06T14:22:06;1.77;;;1.67;;
3873;SDS011;1952;50.872;6.692;2023-08-06T14:27:20;2.70;;;2.30;;
3873;SDS011;1952;50.872;6.692;2023-08-06T14:29:56;1.90;;;1.80;;
3873;SDS011;1952;50.872;6.692;2023-08-06T14:32:34;2.10;;;2.00;;
3873;SDS011;1952;50.872;6.692;2023-08-06T14:35:17;1.97;;;1.47;;
3873;SDS011;1952;50.872;6.692;2023-08-06T14:38:01;2.03;;;1.30;;
3873;SDS011;1952;50.872;6.692;2023-08-06T14:40:30;1.57;;;1.47;;
3873;SDS011;1952;50.872;6.692;2023-08-06T14:43:12;2.13;;;1.60;;
3873;SDS011;1952;50.872;6.692;2023-08-06T14:46:17;1.37;;;1.27;;
3873;SDS011;1952;50.872;6.692;2023-08-06T14:49:09;1.20;;;1.10;;
3873;SDS011;1952;50.872;6.692;2023-08-06T14:51:55;2.57;;;1.73;;
3873;SDS011;1952;50.872;6.692;2023-08-06T14:54:36;1.33;;;1.23;;
3873;SDS011;1952;50.872;6.692;2023-08-06T14:57:19;1.40;;;1.30;;
3873;SDS011;1952;50.872;6.692;2023-08-06T15:00:32;1.47;;;1.37;;
3873;SDS011;1952;50.872;6.692;2023-08-06T15:03:29;2.23;;;1.63;;
3873;SDS011;1952;50.872;6.692;2023-08-06T15:08:33;1.53;;;1.33;;
3873;SDS011;1952;50.872;6.692;2023-08-06T15:11:47;1.27;;;1.17;;
3873;SDS011;1952;50.872;6.692;2023-08-06T15:39:46;2.30;;;1.93;;
3873;SDS011;1952;50.872;6.692;2023-08-06T15:42:54;2.03;;;1.83;;
3873;SDS011;1952;50.872;6.692;2023-08-06T15:45:38;4.30;;;2.27;;
3873;SDS011;1952;50.872;6.692;2023-08-06T15:56:34;3.77;;;1.60;;
3873;SDS011;1952;50.872;6.692;2023-08-06T15:59:47;1.80;;;1.50;;
3873;SDS011;1952;50.872;6.692;2023-08-06T16:02:37;1.70;;;1.60;;
3873;SDS011;1952;50.872;6.692;2023-08-06T16:05:38;1.50;;;1.40;;
3873;SDS011;1952;50.872;6.692;2023-08-06T16:08:23;1.60;;;1.50;;
3873;SDS011;1952;50.872;6.692;2023-08-06T16:11:21;1.93;;;1.70;;
3873;SDS011;1952;50.872;6.692;2023-08-06T16:30:54;2.30;;;1.87;;
3873;SDS011;1952;50.872;6.692;2023-08-06T16:33:25;1.83;;;1.73;;
3873;SDS011;1952;50.872;6.692;2023-08-06T16:36:21;5.67;;;1.93;;
3873;SDS011;1952;50.872;6.692;2023-08-06T16:39:24;3.30;;;2.70;;
3873;SDS011;1952;50.872;6.692;2023-08-06T16:42:12;2.40;;;2.10;;
3873;SDS011;1952;50.872;6.692;2023-08-06T16:45:13;1.60;;;1.50;;
3873;SDS011;1952;50.872;6.692;2023-08-06T16:48:00;1.97;;;1.87;;
3873;SDS011;1952;50.872;6.692;2023-08-06T16:50:56;2.50;;;2.03;;
3873;SDS011;1952;50.872;6.692;2023-08-06T16:53:48;3.33;;;1.93;;
3873;SDS011;1952;50.872;6.692;2023-08-06T16:56:47;4.50;;;1.90;;
3873;SDS011;1952;50.872;6.692;2023-08-06T16:59:32;2.13;;;2.00;;
3873;SDS011;1952;50.872;6.692;2023-08-06T17:02:00;2.73;;;1.97;;
3873;SDS011;1952;50.872;6.692;2023-08-06T17:04:45;2.40;;;2.20;;
3873;SDS011;1952;50.872;6.692;2023-08-06T17:07:21;2.13;;;1.93;;
3873;SDS011;1952;50.872;6.692;2023-08-06T17:10:14;4.67;;;1.83;;
3873;SDS011;1952;50.872;6.692;2023-08-06T17:13:02;5.93;;;1.80;;
3873;SDS011;1952;50.872;6.692;2023-08-06T17:15:49;1.70;;;1.60;;
3873;SDS011;1952;50.872;6.692;2023-08-06T17:18:34;1.87;;;1.77;;
3873;SDS011;1952;50.872;6.692;2023-08-06T17:21:20;3.93;;;1.90;;
3873;SDS011;1952;50.872;6.692;2023-08-06T17:23:58;3.43;;;2.13;;
3873;SDS011;1952;50.872;6.692;2023-08-06T17:26:43;2.40;;;2.00;;
3873;SDS011;1952;50.872;6.692;2023-08-06T17:29:16;2.97;;;2.40;;
3873;SDS011;1952;50.872;6.692;2023-08-06T17:32:13;2.53;;;1.70;;
3873;SDS011;1952;50.872;6.692;2023-08-06T17:46:19;1.97;;;1.50;;
3873;SDS011;1952;50.872;6.692;2023-08-06T17:48:54;1.53;;;1.40;;
3873;SDS011;1952;50.872;6.692;2023-08-06T17:51:50;1.40;;;1.30;;
3873;SDS011;1952;50.872;6.692;2023-08-06T17:54:48;1.47;;;1.23;;
3873;SDS011;1952;50.872;6.692;2023-08-06T17:57:18;2.93;;;1.60;;
3873;SDS011;1952;50.872;6.692;2023-08-06T18:00:02;2.27;;;1.57;;
3873;SDS011;1952;50.872;6.692;2023-08-06T18:09:05;1.43;;;1.00;;
3873;SDS011;1952;50.872;6.692;2023-08-06T18:11:48;1.50;;;1.33;;
3873;SDS011;1952;50.872;6.692;2023-08-06T18:14:49;1.10;;;1.00;;
3873;SDS011;1952;50.872;6.692;2023-08-06T18:17:47;2.07;;;1.50;;
3873;SDS011;1952;50.872;6.692;2023-08-06T18:20:36;1.77;;;1.20;;
3873;SDS011;1952;50.872;6.692;2023-08-06T18:23:23;1.43;;;1.10;;
3873;SDS011;1952;50.872;6.692;2023-08-06T18:29:09;1.40;;;1.30;;
3873;SDS011;1952;50.872;6.692;2023-08-06T18:34:48;1.43;;;1.23;;
3873;SDS011;1952;50.872;6.692;2023-08-06T18:37:49;2.78;;;1.45;;
3873;SDS011;1952;50.872;6.692;2023-08-06T18:41:00;2.07;;;1.17;;
3873;SDS011;1952;50.872;6.692;2023-08-06T18:43:56;2.73;;;1.40;;
3873;SDS011;1952;50.872;6.692;2023-08-06T19:46:41;5.73;;;2.37;;
3873;SDS011;1952;50.872;6.692;2023-08-06T19:49:45;3.77;;;1.87;;
3873;SDS011;1952;50.872;6.692;2023-08-06T19:52:49;2.80;;;2.10;;
3873;SDS011;1952;50.872;6.692;2023-08-06T19:55:50;3.47;;;2.97;;
3873;SDS011;1952;50.872;6.692;2023-08-06T19:58:48;6.30;;;2.43;;
3873;SDS011;1952;50.872;6.692;2023-08-06T20:30:21;7.50;;;2.37;;
3873;SDS011;1952;50.872;6.692;2023-08-06T20:33:17;21.57;;;4.33;;
3873;SDS011;1952;50.872;6.692;2023-08-06T20:35:49;3.10;;;2.03;;
3873;SDS011;1952;50.872;6.692;2023-08-06T20:38:22;5.93;;;2.60;;
3873;SDS011;1952;50.872;6.692;2023-08-06T20:41:08;7.07;;;2.57;;
3873;SDS011;1952;50.872;6.692;2023-08-06T20:43:45;3.10;;;2.00;;
3873;SDS011;1952;50.872;6.692;2023-08-06T20:46:19;2.60;;;1.93;;
3873;SDS011;1952;50.872;6.692;2023-08-06T20:48:51;3.87;;;2.97;;
3873;SDS011;1952;50.872;6.692;2023-08-06T20:51:21;2.17;;;1.97;;
3873;SDS011;1952;50.872;6.692;2023-08-06T20:53:51;5.60;;;2.97;;
3873;SDS011;1952;50.872;6.692;2023-08-06T20:59:32;3.83;;;3.10;;
3873;SDS011;1952;50.872;6.692;2023-08-06T21:16:27;2.60;;;2.40;;
3873;SDS011;1952;50.872;6.692;2023-08-06T21:19:10;5.90;;;2.40;;
3873;SDS011;1952;50.872;6.692;2023-08-06T21:21:39;4.50;;;3.27;;
3873;SDS011;1952;50.872;6.692;2023-08-06T21:24:15;6.10;;;2.47;;
3873;SDS011;1952;50.872;6.692;2023-08-06T21:26:48;6.90;;;2.73;;
3873;SDS011;1952;50.872;6.692;2023-08-06T21:43:42;2.93;;;2.27;;